Ana Sayfa
METAR-TAF:

METAR-TAF

Havaalanları :

Block Island, Rhode Island, Amerika Birleşik Devletleri

Enlem: 41-10N, Boylam: 071-34W, yükseklik: 33 m

Güncel hava durumu gözlemi

Rapor saat 06:56 UTC de 24 dakika önce yapıldı.
Rüzgar batı/güneybatıdan 8 kt
Sıcaklık -1°C
Nem 80%
Basınç 1022 hPa
Görüş mesafesi: 16.1 km
Açık gökyüzü

METAR: KBID 230656Z AUTO 24008KT 10SM CLR M01/M04 A3019 RMK AO2 SLP223 T10111039 FZRANO

Saat: 02:20 (07:20 UTC)


TAF: eksik

4.000'den fazla havaalanı için hava durumu gözlemleri ve tahminleri (METAR ve TAF raporları).

Kullanılabilir istasyonlar harita üzerinde sarı ve kırmızı noktalarla gösterilir.

İstasyonun adını görmek için fareyi noktanın üzerinde gezdirin.

Sonrasında hava gözlem ve tahminlerini görmek için tıklayın.

Haritayı değiştirmek için: yaklaştırmak için siyah artı işaretli yeşil düğmeye ve uzaklaştırmak için de eksi işaretli düğmeye hızla tıklayın; bitişik haritalar için yeşil okları kullanın.


METAR-TAF: